createdAt,value
2017-10-14T00:00:22.232Z,0
2017-10-14T00:01:31.225Z,0
2017-10-14T00:02:40.224Z,0
2017-10-14T00:03:49.191Z,0
2017-10-14T00:04:57.854Z,0
2017-10-14T00:06:06.826Z,0
2017-10-14T00:07:16.130Z,0
2017-10-14T00:08:25.124Z,0
2017-10-14T00:09:34.122Z,0
2017-10-14T00:10:42.776Z,0
2017-10-14T00:11:52.095Z,0
2017-10-14T00:13:00.765Z,0
2017-10-14T00:14:09.765Z,0
2017-10-14T00:15:18.411Z,0
2017-10-14T00:16:28.047Z,0
2017-10-14T00:17:37.040Z,0
2017-10-14T00:18:46.018Z,0
2017-10-14T00:19:55.343Z,0
2017-10-14T00:21:04.649Z,0
2017-10-14T00:22:14.281Z,0
2017-10-14T00:23:23.918Z,0
2017-10-14T00:24:33.549Z,0
2017-10-14T00:25:42.860Z,0
2017-10-14T00:26:51.846Z,0
2017-10-14T00:28:00.891Z,0
2017-10-14T00:29:10.234Z,0
2017-10-14T00:30:18.895Z,0
2017-10-14T00:31:28.882Z,0
2017-10-14T00:32:38.197Z,0
2017-10-14T00:33:46.880Z,0
2017-10-14T00:34:55.994Z,0
2017-10-14T00:36:06.194Z,0
2017-10-14T00:37:14.858Z,0
2017-10-14T00:38:23.513Z,0
2017-10-14T00:39:32.826Z,0
2017-10-14T00:40:41.813Z,0
2017-10-14T00:41:50.466Z,0
2017-10-14T00:42:59.456Z,0
2017-10-14T00:44:08.765Z,0
2017-10-14T00:45:17.761Z,0
2017-10-14T00:46:26.739Z,0
2017-10-14T00:47:35.736Z,0
2017-10-14T00:48:44.732Z,0
2017-10-14T00:49:53.728Z,0
2017-10-14T00:51:02.380Z,0
2017-10-14T00:52:11.696Z,0
2017-10-14T00:53:20.373Z,0
2017-10-14T00:54:29.429Z,0
2017-10-14T00:55:38.749Z,0
2017-10-14T00:56:47.424Z,0
2017-10-14T00:57:56.731Z,0
2017-10-14T00:59:05.396Z,0
2017-10-14T01:00:14.395Z,0
2017-10-14T01:01:23.709Z,0
2017-10-14T01:02:32.373Z,0
2017-10-14T01:03:41.413Z,0
2017-10-14T01:04:50.765Z,0
2017-10-14T01:05:59.788Z,0
2017-10-14T01:07:08.774Z,0
2017-10-14T01:08:18.084Z,0
2017-10-14T01:09:27.737Z,0
2017-10-14T01:10:36.755Z,0
2017-10-14T01:11:46.220Z,0
2017-10-14T01:12:55.200Z,0
2017-10-14T01:14:04.528Z,0
2017-10-14T01:15:13.526Z,0
2017-10-14T01:16:22.510Z,0
2017-10-14T01:17:31.169Z,0
2017-10-14T01:18:40.464Z,0
2017-10-14T01:19:49.803Z,0
2017-10-14T01:20:58.790Z,0
2017-10-14T01:22:08.143Z,0
2017-10-14T01:23:17.146Z,0
2017-10-14T01:24:26.486Z,0
2017-10-14T01:25:35.796Z,0
2017-10-14T01:26:45.115Z,0
2017-10-14T01:27:54.464Z,0
2017-10-14T01:29:03.791Z,0
2017-10-14T01:30:12.776Z,0
2017-10-14T01:31:22.090Z,0
2017-10-14T01:32:31.387Z,0
2017-10-14T01:33:40.392Z,0
2017-10-14T01:34:49.706Z,0
2017-10-14T01:35:59.029Z,0
2017-10-14T01:37:07.685Z,0
2017-10-14T01:38:17.004Z,0
2017-10-14T01:39:26.315Z,0
2017-10-14T01:40:35.652Z,0
2017-10-14T01:41:44.328Z,0
2017-10-14T01:42:53.324Z,0
2017-10-14T01:44:02.326Z,0
2017-10-14T01:45:11.645Z,0
2017-10-14T01:46:20.653Z,0
2017-10-14T01:47:29.364Z,0
2017-10-14T01:48:38.680Z,0
2017-10-14T01:49:47.335Z,0
2017-10-14T01:50:56.986Z,0
2017-10-14T01:52:06.073Z,0
2017-10-14T01:53:14.845Z,0
2017-10-14T01:54:23.813Z,0
2017-10-14T01:55:32.822Z,0
2017-10-14T01:56:41.467Z,0
2017-10-14T01:57:50.179Z,0
2017-10-14T01:58:59.506Z,0
2017-10-14T02:00:08.496Z,0
2017-10-14T02:01:17.510Z,0
2017-10-14T02:02:26.504Z,0
2017-10-14T02:03:35.811Z,0
2017-10-14T02:04:44.792Z,0
2017-10-14T02:05:53.808Z,0
2017-10-14T02:07:03.130Z,0
2017-10-14T02:08:12.438Z,0
2017-10-14T02:09:21.763Z,0
2017-10-14T02:10:31.426Z,0
2017-10-14T02:11:40.420Z,0
2017-10-14T02:12:49.733Z,0
2017-10-14T02:13:58.714Z,0
2017-10-14T02:15:07.770Z,0
2017-10-14T02:16:16.428Z,0
2017-10-14T02:17:25.405Z,0
2017-10-14T02:18:35.056Z,0
2017-10-14T02:19:44.045Z,0
2017-10-14T02:20:53.036Z,0
2017-10-14T02:22:02.726Z,0
2017-10-14T02:23:12.386Z,0
2017-10-14T02:24:21.048Z,0
2017-10-14T02:25:30.030Z,0
2017-10-14T02:26:38.791Z,0
2017-10-14T02:27:47.792Z,0
2017-10-14T02:28:56.809Z,0
2017-10-14T02:30:06.159Z,0
2017-10-14T02:31:15.157Z,0
2017-10-14T02:32:24.156Z,0
2017-10-14T02:33:33.817Z,0
2017-10-14T02:34:42.824Z,0
2017-10-14T02:35:51.816Z,0
2017-10-14T02:37:00.806Z,0
2017-10-14T02:38:10.557Z,0
2017-10-14T02:39:19.208Z,0
2017-10-14T02:40:28.245Z,0
2017-10-14T02:41:37.605Z,0
2017-10-14T02:42:46.277Z,0
2017-10-14T02:43:55.648Z,0
2017-10-14T02:45:04.972Z,0
2017-10-14T02:46:13.638Z,0
2017-10-14T02:47:22.302Z,0
2017-10-14T02:48:31.301Z,0
2017-10-14T02:49:40.732Z,0
2017-10-14T02:50:49.725Z,0
2017-10-14T02:51:58.703Z,0
2017-10-14T02:53:07.700Z,0
2017-10-14T02:54:16.999Z,0
2017-10-14T02:55:26.074Z,0
2017-10-14T02:56:35.062Z,0
2017-10-14T02:57:44.050Z,0
2017-10-14T02:58:53.692Z,0
2017-10-14T03:00:03.010Z,0
2017-10-14T03:01:12.725Z,0
2017-10-14T03:02:21.713Z,0
2017-10-14T03:03:31.130Z,0
2017-10-14T03:04:40.439Z,0
2017-10-14T03:05:49.746Z,0
2017-10-14T03:06:58.733Z,0
2017-10-14T03:08:07.393Z,0
2017-10-14T03:09:16.071Z,0
2017-10-14T03:10:25.067Z,0
2017-10-14T03:11:34.720Z,0
2017-10-14T03:12:44.450Z,0
2017-10-14T03:13:53.431Z,0
2017-10-14T03:15:02.757Z,0
2017-10-14T03:16:11.429Z,0
2017-10-14T03:17:20.094Z,0
2017-10-14T03:18:29.090Z,0
2017-10-14T03:19:38.758Z,0
2017-10-14T03:20:48.076Z,0
2017-10-14T03:21:57.396Z,0
2017-10-14T03:23:06.409Z,0
2017-10-14T03:24:15.400Z,0
2017-10-14T03:25:24.137Z,0
2017-10-14T03:26:33.122Z,0
2017-10-14T03:27:42.448Z,0
2017-10-14T03:28:51.805Z,0
2017-10-14T03:30:00.460Z,0
2017-10-14T03:31:09.127Z,0
2017-10-14T03:32:17.779Z,0
2017-10-14T03:33:26.807Z,0
2017-10-14T03:34:36.451Z,0
2017-10-14T03:35:45.492Z,0
2017-10-14T03:36:54.809Z,0
2017-10-14T03:38:04.458Z,0
2017-10-14T03:39:13.477Z,0
2017-10-14T03:40:22.477Z,0
2017-10-14T03:41:31.138Z,0
2017-10-14T03:42:40.442Z,0
2017-10-14T03:43:49.101Z,0
2017-10-14T03:44:57.759Z,0
2017-10-14T03:46:06.425Z,0
2017-10-14T03:47:15.834Z,0
2017-10-14T03:48:24.815Z,0
2017-10-14T03:49:33.492Z,0
2017-10-14T03:50:42.460Z,0
2017-10-14T03:51:51.123Z,0
2017-10-14T03:53:00.785Z,0
2017-10-14T03:54:09.767Z,0
2017-10-14T03:55:18.429Z,0
2017-10-14T03:56:27.414Z,0
2017-10-14T03:57:36.739Z,0
2017-10-14T03:58:45.737Z,0
2017-10-14T03:59:54.738Z,0
2017-10-14T04:01:03.467Z,0
2017-10-14T04:02:12.808Z,0
2017-10-14T04:03:21.465Z,0
2017-10-14T04:04:30.449Z,0
2017-10-14T04:05:39.435Z,0
2017-10-14T04:06:48.097Z,0
2017-10-14T04:07:56.780Z,0
2017-10-14T04:09:06.457Z,0
2017-10-14T04:10:15.498Z,0
2017-10-14T04:11:24.857Z,0
2017-10-14T04:12:34.173Z,0
2017-10-14T04:13:43.204Z,0
2017-10-14T04:14:52.182Z,0
2017-10-14T04:16:00.840Z,0
2017-10-14T04:17:09.499Z,0
2017-10-14T04:18:19.144Z,0
2017-10-14T04:19:28.148Z,0
2017-10-14T04:20:36.796Z,0
2017-10-14T04:21:46.103Z,0
2017-10-14T04:22:54.779Z,0
2017-10-14T04:24:04.439Z,0
2017-10-14T04:25:13.765Z,0
2017-10-14T04:26:22.414Z,0
2017-10-14T04:27:31.391Z,0
2017-10-14T04:28:40.700Z,0
2017-10-14T04:29:50.009Z,0
2017-10-14T04:30:59.010Z,0
2017-10-14T04:32:08.084Z,0
2017-10-14T04:33:17.420Z,0
2017-10-14T04:34:26.733Z,0
2017-10-14T04:35:36.045Z,0
2017-10-14T04:36:45.373Z,0
2017-10-14T04:37:54.360Z,0
2017-10-14T04:39:03.358Z,0
2017-10-14T04:40:12.670Z,0
2017-10-14T04:41:21.660Z,0
2017-10-14T04:42:30.340Z,0
2017-10-14T04:43:39.659Z,0
2017-10-14T04:44:48.693Z,0
2017-10-14T04:45:57.997Z,0
2017-10-14T04:47:07.965Z,0
2017-10-14T04:48:16.615Z,0
2017-10-14T04:49:25.607Z,0
2017-10-14T04:50:34.586Z,0
2017-10-14T04:51:43.907Z,0
2017-10-14T04:52:52.571Z,0
2017-10-14T04:54:01.557Z,0
2017-10-14T04:55:10.556Z,0
2017-10-14T04:56:20.016Z,0
2017-10-14T04:57:29.040Z,0
2017-10-14T04:58:38.045Z,0
2017-10-14T04:59:47.036Z,0
2017-10-14T05:00:56.350Z,0
2017-10-14T05:02:05.409Z,0
2017-10-14T05:03:14.458Z,0
2017-10-14T05:04:23.488Z,0
2017-10-14T05:05:33.775Z,0
2017-10-14T05:06:42.436Z,0
2017-10-14T05:07:51.130Z,0
2017-10-14T05:09:00.127Z,0
2017-10-14T05:10:09.449Z,0
2017-10-14T05:11:18.527Z,0
2017-10-14T05:12:27.181Z,0
2017-10-14T05:13:36.208Z,0
2017-10-14T05:14:44.868Z,0
2017-10-14T05:15:53.904Z,0
2017-10-14T05:17:02.924Z,0
2017-10-14T05:18:12.628Z,0
2017-10-14T05:19:21.641Z,0
2017-10-14T05:20:30.614Z,0
2017-10-14T05:21:39.279Z,0
2017-10-14T05:22:48.603Z,0
2017-10-14T05:23:57.267Z,0
2017-10-14T05:25:06.255Z,0
2017-10-14T05:26:15.580Z,0
2017-10-14T05:27:24.905Z,0
2017-10-14T05:28:34.228Z,0
2017-10-14T05:29:43.253Z,0
2017-10-14T05:30:52.570Z,0
2017-10-14T05:32:01.605Z,4
2017-10-14T05:33:10.608Z,0
2017-10-14T05:34:19.289Z,4
2017-10-14T05:35:28.969Z,4
2017-10-14T05:36:38.291Z,4
2017-10-14T05:37:47.019Z,8
2017-10-14T05:38:56.037Z,12
2017-10-14T05:40:05.357Z,12
2017-10-14T05:41:15.013Z,16
2017-10-14T05:42:24.035Z,20
2017-10-14T05:43:33.025Z,16
2017-10-14T05:44:42.685Z,20
2017-10-14T05:45:51.363Z,24
2017-10-14T05:47:00.344Z,32
2017-10-14T05:48:09.122Z,32
2017-10-14T05:49:18.150Z,36
2017-10-14T05:50:26.830Z,40
2017-10-14T05:51:35.818Z,48
2017-10-14T05:52:45.129Z,48
2017-10-14T05:53:54.478Z,56
2017-10-14T05:55:03.468Z,60
2017-10-14T05:56:12.463Z,72
2017-10-14T05:57:21.496Z,76
2017-10-14T05:58:31.153Z,80
2017-10-14T05:59:40.843Z,88
2017-10-14T06:00:50.146Z,92
2017-10-14T06:01:59.457Z,104
2017-10-14T06:03:08.823Z,108
2017-10-14T06:04:18.491Z,120
2017-10-14T06:05:28.247Z,128
2017-10-14T06:06:37.243Z,132
2017-10-14T06:07:46.257Z,144
2017-10-14T06:08:54.922Z,152
2017-10-14T06:10:03.912Z,156
2017-10-14T06:11:13.195Z,164
2017-10-14T06:12:22.201Z,172
2017-10-14T06:13:31.862Z,184
2017-10-14T06:14:41.356Z,188
2017-10-14T06:15:50.051Z,200
2017-10-14T06:16:59.416Z,208
2017-10-14T06:18:08.454Z,220
2017-10-14T06:19:17.761Z,224
2017-10-14T06:20:26.762Z,232
2017-10-14T06:21:35.446Z,248
2017-10-14T06:22:44.424Z,252
2017-10-14T06:23:53.095Z,260
2017-10-14T06:25:02.136Z,268
2017-10-14T06:26:10.781Z,276
2017-10-14T06:27:19.781Z,280
2017-10-14T06:28:28.429Z,292
2017-10-14T06:29:38.765Z,300
2017-10-14T06:30:47.757Z,304
2017-10-14T06:31:56.787Z,312
2017-10-14T06:33:06.113Z,324
2017-10-14T06:34:15.097Z,328
2017-10-14T06:35:24.116Z,336
2017-10-14T06:36:33.449Z,344
2017-10-14T06:37:42.094Z,352
2017-10-14T06:38:51.089Z,360
2017-10-14T06:40:00.077Z,364
2017-10-14T06:41:08.751Z,372
2017-10-14T06:42:18.099Z,380
2017-10-14T06:43:27.097Z,388
2017-10-14T06:44:35.761Z,392
2017-10-14T06:45:45.418Z,400
2017-10-14T06:46:54.821Z,408
2017-10-14T06:48:03.841Z,412
2017-10-14T06:49:13.165Z,416
2017-10-14T06:50:22.543Z,420
2017-10-14T06:51:31.875Z,428
2017-10-14T06:52:41.598Z,436
2017-10-14T06:53:50.593Z,440
2017-10-14T06:54:59.261Z,452
2017-10-14T06:56:08.255Z,452
2017-10-14T06:57:17.676Z,448
2017-10-14T06:58:26.673Z,460
2017-10-14T06:59:36.765Z,476
2017-10-14T07:00:45.756Z,472
2017-10-14T07:01:55.079Z,472
2017-10-14T07:03:04.726Z,488
2017-10-14T07:04:13.751Z,496
2017-10-14T07:05:22.751Z,496
2017-10-14T07:06:31.748Z,496
2017-10-14T07:07:40.734Z,500
2017-10-14T07:08:50.393Z,504
2017-10-14T07:10:00.052Z,512
2017-10-14T07:11:08.722Z,520
2017-10-14T07:12:17.421Z,528
2017-10-14T07:13:26.741Z,532
2017-10-14T07:14:35.839Z,532
2017-10-14T07:15:44.597Z,540
2017-10-14T07:16:53.800Z,548
2017-10-14T07:18:02.532Z,560
2017-10-14T07:19:11.195Z,560
2017-10-14T07:20:20.288Z,564
2017-10-14T07:21:29.819Z,560
2017-10-14T07:22:39.149Z,580
2017-10-14T07:23:47.880Z,592
2017-10-14T07:24:57.534Z,584
2017-10-14T07:26:07.227Z,576
2017-10-14T07:27:16.664Z,584
2017-10-14T07:28:26.150Z,596
2017-10-14T07:29:35.178Z,588
2017-10-14T07:30:45.178Z,588
2017-10-14T07:31:54.667Z,588
2017-10-14T07:33:04.053Z,592
2017-10-14T07:34:13.186Z,604
2017-10-14T07:35:22.635Z,612
2017-10-14T07:36:32.201Z,608
2017-10-14T07:37:41.648Z,600
2017-10-14T07:38:50.662Z,616
2017-10-14T07:40:00.000Z,612
2017-10-14T07:41:09.182Z,628
2017-10-14T07:42:18.178Z,636
2017-10-14T07:43:27.182Z,636
2017-10-14T07:44:36.516Z,636
2017-10-14T07:45:45.496Z,632
2017-10-14T07:46:54.499Z,636
2017-10-14T07:48:03.494Z,644
2017-10-14T07:49:12.813Z,648
2017-10-14T07:50:22.146Z,660
2017-10-14T07:51:31.481Z,652
2017-10-14T07:52:40.140Z,652
2017-10-14T07:53:49.457Z,652
2017-10-14T07:54:58.437Z,660
2017-10-14T07:56:07.424Z,660
2017-10-14T07:57:16.413Z,664
2017-10-14T07:58:25.411Z,664
2017-10-14T07:59:34.409Z,668
2017-10-14T08:00:43.052Z,672
2017-10-14T08:01:52.050Z,672
2017-10-14T08:03:01.705Z,688
2017-10-14T08:04:10.699Z,688
2017-10-14T08:05:20.016Z,696
2017-10-14T08:06:29.662Z,708
2017-10-14T08:07:39.003Z,700
2017-10-14T08:08:48.007Z,708
2017-10-14T08:09:57.026Z,716
2017-10-14T08:11:06.342Z,716
2017-10-14T08:12:15.000Z,716
2017-10-14T08:13:24.331Z,716
2017-10-14T08:14:33.649Z,720
2017-10-14T08:15:42.639Z,728
2017-10-14T08:16:51.641Z,728
2017-10-14T08:18:00.678Z,728
2017-10-14T08:19:10.662Z,728
2017-10-14T08:20:20.328Z,728
2017-10-14T08:21:29.006Z,732
2017-10-14T08:22:38.006Z,736
2017-10-14T08:23:47.657Z,736
2017-10-14T08:24:56.321Z,736
2017-10-14T08:26:05.328Z,740
2017-10-14T08:27:14.360Z,740
2017-10-14T08:28:23.696Z,740
2017-10-14T08:29:32.732Z,740
2017-10-14T08:30:41.755Z,732
2017-10-14T08:31:50.414Z,736
2017-10-14T08:32:59.075Z,732
2017-10-14T08:34:07.742Z,732
2017-10-14T08:35:17.397Z,728
2017-10-14T08:36:26.780Z,724
2017-10-14T08:37:36.144Z,724
2017-10-14T08:38:45.464Z,724
2017-10-14T08:39:54.127Z,720
2017-10-14T08:41:02.815Z,720
2017-10-14T08:42:12.142Z,720
2017-10-14T08:43:21.479Z,724
2017-10-14T08:44:30.473Z,720
2017-10-14T08:45:39.464Z,716
2017-10-14T08:46:48.471Z,708
2017-10-14T08:47:57.802Z,708
2017-10-14T08:49:06.502Z,712
2017-10-14T08:50:15.145Z,712
2017-10-14T08:51:24.194Z,712
2017-10-14T08:52:33.293Z,712
2017-10-14T08:53:41.984Z,704
2017-10-14T08:54:50.999Z,700
2017-10-14T08:56:00.404Z,700
2017-10-14T08:57:09.728Z,700
2017-10-14T08:58:18.456Z,696
2017-10-14T08:59:27.449Z,700
2017-10-14T09:00:37.111Z,700
2017-10-14T09:01:46.458Z,700
2017-10-14T09:02:56.097Z,704
2017-10-14T09:04:04.755Z,700
2017-10-14T09:05:13.417Z,704
2017-10-14T09:06:22.412Z,700
2017-10-14T09:07:31.835Z,700
2017-10-14T09:08:40.935Z,700
2017-10-14T09:09:49.627Z,700
2017-10-14T09:10:59.242Z,700
2017-10-14T09:12:08.775Z,700
2017-10-14T09:13:17.448Z,700
2017-10-14T09:14:27.112Z,696
2017-10-14T09:15:35.813Z,700
2017-10-14T09:16:44.469Z,700
2017-10-14T09:17:53.838Z,696
2017-10-14T09:19:03.185Z,692
2017-10-14T09:20:12.234Z,684
2017-10-14T09:21:21.267Z,684
2017-10-14T09:22:30.956Z,680
2017-10-14T09:23:40.604Z,680
2017-10-14T09:24:49.604Z,676
2017-10-14T09:25:58.929Z,680
2017-10-14T09:27:07.686Z,684
2017-10-14T09:28:16.358Z,684
2017-10-14T09:29:25.016Z,688
2017-10-14T09:30:34.665Z,696
2017-10-14T09:31:43.673Z,704
2017-10-14T09:32:52.654Z,704
2017-10-14T09:34:01.724Z,704
2017-10-14T09:35:10.771Z,704
2017-10-14T09:36:20.888Z,704
2017-10-14T09:37:29.890Z,704
2017-10-14T09:38:38.872Z,708
2017-10-14T09:39:47.918Z,712
2017-10-14T09:40:56.577Z,716
2017-10-14T09:42:05.593Z,712
2017-10-14T09:43:14.927Z,704
2017-10-14T09:44:24.346Z,704
2017-10-14T09:45:33.342Z,712
2017-10-14T09:46:42.413Z,712
2017-10-14T09:47:51.409Z,716
2017-10-14T09:49:00.401Z,712
2017-10-14T09:50:09.068Z,712
2017-10-14T09:51:18.180Z,712
2017-10-14T09:52:27.583Z,708
2017-10-14T09:53:36.299Z,696
2017-10-14T09:54:45.740Z,696
2017-10-14T09:55:55.055Z,692
2017-10-14T09:57:04.374Z,696
2017-10-14T09:58:13.707Z,696
2017-10-14T09:59:22.688Z,696
2017-10-14T10:00:31.669Z,696
2017-10-14T10:01:40.995Z,692
2017-10-14T10:02:50.345Z,688
2017-10-14T10:03:59.740Z,688
2017-10-14T10:05:09.080Z,688
2017-10-14T10:06:18.111Z,676
2017-10-14T10:07:27.197Z,676
2017-10-14T10:08:36.517Z,680
2017-10-14T10:09:45.561Z,672
2017-10-14T10:10:54.228Z,668
2017-10-14T10:12:03.021Z,664
2017-10-14T10:13:12.115Z,668
2017-10-14T10:14:21.453Z,660
2017-10-14T10:15:31.101Z,664
2017-10-14T10:16:40.404Z,664
2017-10-14T10:17:49.134Z,664
2017-10-14T10:18:57.883Z,672
2017-10-14T10:20:06.970Z,676
2017-10-14T10:21:16.663Z,668
2017-10-14T10:22:25.989Z,656
2017-10-14T10:23:34.970Z,648
2017-10-14T10:24:43.994Z,652
2017-10-14T10:25:53.023Z,664
2017-10-14T10:27:02.008Z,660
2017-10-14T10:28:10.700Z,648
2017-10-14T10:29:19.733Z,648
2017-10-14T10:30:28.717Z,648
2017-10-14T10:31:37.381Z,656
2017-10-14T10:32:46.501Z,688
2017-10-14T10:33:55.818Z,664
2017-10-14T10:35:04.800Z,652
2017-10-14T10:36:13.821Z,640
2017-10-14T10:37:23.189Z,628
2017-10-14T10:38:32.499Z,624
2017-10-14T10:39:41.170Z,620
2017-10-14T10:40:50.166Z,624
2017-10-14T10:41:59.556Z,624
2017-10-14T10:43:08.573Z,632
2017-10-14T10:44:17.563Z,628
2017-10-14T10:45:26.582Z,628
2017-10-14T10:46:35.586Z,624
2017-10-14T10:47:44.958Z,628
2017-10-14T10:48:54.613Z,632
2017-10-14T10:50:03.324Z,624
2017-10-14T10:51:12.310Z,620
2017-10-14T10:52:21.653Z,620
2017-10-14T10:53:31.292Z,620
2017-10-14T10:54:40.314Z,620
2017-10-14T10:55:49.645Z,620
2017-10-14T10:56:58.636Z,620
2017-10-14T10:58:07.358Z,624
2017-10-14T10:59:16.743Z,628
2017-10-14T11:00:25.950Z,628
2017-10-14T11:01:35.246Z,628
2017-10-14T11:02:44.268Z,624
2017-10-14T11:03:52.988Z,616
2017-10-14T11:05:02.213Z,616
2017-10-14T11:06:11.210Z,612
2017-10-14T11:07:20.185Z,612
2017-10-14T11:08:29.182Z,608
2017-10-14T11:09:38.536Z,600
2017-10-14T11:10:47.624Z,604
2017-10-14T11:11:57.282Z,600
2017-10-14T11:13:06.632Z,604
2017-10-14T11:14:15.280Z,600
2017-10-14T11:15:24.586Z,596
2017-10-14T11:16:33.927Z,600
2017-10-14T11:17:43.241Z,604
2017-10-14T11:18:51.894Z,604
2017-10-14T11:20:00.887Z,600
2017-10-14T11:21:09.881Z,600
2017-10-14T11:22:18.954Z,600
2017-10-14T11:23:28.301Z,596
2017-10-14T11:24:37.609Z,596
2017-10-14T11:25:46.604Z,596
2017-10-14T11:26:55.590Z,592
2017-10-14T11:28:05.674Z,592
2017-10-14T11:29:15.353Z,588
2017-10-14T11:30:24.678Z,584
2017-10-14T11:31:34.353Z,584
2017-10-14T11:32:43.664Z,580
2017-10-14T11:33:52.682Z,584
2017-10-14T11:35:01.364Z,580
2017-10-14T11:36:10.033Z,580
2017-10-14T11:37:19.378Z,572
2017-10-14T11:38:28.102Z,564
2017-10-14T11:39:37.112Z,568
2017-10-14T11:40:46.126Z,568
2017-10-14T11:41:55.436Z,568
2017-10-14T11:43:05.104Z,568
2017-10-14T11:44:14.116Z,572
2017-10-14T11:45:23.130Z,572
2017-10-14T11:46:31.784Z,576
2017-10-14T11:47:41.766Z,576
2017-10-14T11:48:51.126Z,584
2017-10-14T11:50:00.800Z,584
2017-10-14T11:51:10.456Z,584
2017-10-14T11:52:19.157Z,580
2017-10-14T11:53:28.161Z,580
2017-10-14T11:54:37.830Z,576
2017-10-14T11:55:46.479Z,580
2017-10-14T11:56:55.453Z,580
2017-10-14T11:58:04.764Z,580
2017-10-14T11:59:16.828Z,580
2017-10-14T12:00:27.448Z,580
2017-10-14T12:01:36.128Z,576
2017-10-14T12:02:44.788Z,572
2017-10-14T12:03:54.454Z,572
2017-10-14T12:05:03.129Z,568
2017-10-14T12:06:12.141Z,568
2017-10-14T12:07:21.216Z,572
2017-10-14T12:08:29.887Z,576
2017-10-14T12:09:38.910Z,576
2017-10-14T12:10:48.221Z,576
2017-10-14T12:11:56.884Z,568
2017-10-14T12:13:06.531Z,572
2017-10-14T12:14:15.552Z,576
2017-10-14T12:15:24.209Z,580
2017-10-14T12:16:33.190Z,572
2017-10-14T12:17:41.844Z,572
2017-10-14T12:18:51.168Z,568
2017-10-14T12:20:00.159Z,568
2017-10-14T12:21:09.239Z,568
2017-10-14T12:22:18.265Z,568
2017-10-14T12:23:27.965Z,568
2017-10-14T12:24:37.012Z,576
2017-10-14T12:25:45.686Z,576
2017-10-14T12:26:55.011Z,572
2017-10-14T12:28:04.453Z,572
2017-10-14T12:29:13.856Z,568
2017-10-14T12:30:22.863Z,564
2017-10-14T12:31:32.244Z,564
2017-10-14T12:32:41.898Z,556
2017-10-14T12:33:51.228Z,556
2017-10-14T12:35:00.300Z,552
2017-10-14T12:36:09.021Z,548
2017-10-14T12:37:18.024Z,544
2017-10-14T12:38:26.715Z,544
2017-10-14T12:39:36.049Z,544
2017-10-14T12:40:44.752Z,544
2017-10-14T12:41:53.748Z,544
2017-10-14T12:43:02.514Z,544
2017-10-14T12:44:11.206Z,544
2017-10-14T12:45:19.871Z,544
2017-10-14T12:46:28.549Z,548
2017-10-14T12:47:37.862Z,548
2017-10-14T12:48:46.985Z,548
2017-10-14T12:49:56.352Z,552
2017-10-14T12:51:05.692Z,560
2017-10-14T12:52:15.341Z,560
2017-10-14T12:53:24.660Z,560
2017-10-14T12:54:33.366Z,564
2017-10-14T12:55:42.367Z,556
2017-10-14T12:56:51.727Z,552
2017-10-14T12:58:01.034Z,556
2017-10-14T12:59:10.065Z,552
2017-10-14T13:00:19.059Z,548
2017-10-14T13:01:28.731Z,560
2017-10-14T13:02:37.763Z,584
2017-10-14T13:03:47.412Z,556
2017-10-14T13:04:56.078Z,544
2017-10-14T13:06:04.756Z,548
2017-10-14T13:07:15.068Z,548
2017-10-14T13:08:24.759Z,544
2017-10-14T13:09:33.761Z,540
2017-10-14T13:10:42.814Z,540
2017-10-14T13:11:52.133Z,536
2017-10-14T13:13:01.118Z,536
2017-10-14T13:14:09.808Z,532
2017-10-14T13:15:18.808Z,536
2017-10-14T13:16:27.496Z,536
2017-10-14T13:17:36.531Z,544
2017-10-14T13:18:45.887Z,540
2017-10-14T13:19:55.547Z,548
2017-10-14T13:21:04.855Z,548
2017-10-14T13:22:13.857Z,540
2017-10-14T13:23:22.849Z,532
2017-10-14T13:24:32.485Z,528
2017-10-14T13:25:41.154Z,524
2017-10-14T13:26:50.477Z,520
2017-10-14T13:27:59.145Z,520
2017-10-14T13:29:08.780Z,520
2017-10-14T13:30:18.089Z,516
2017-10-14T13:31:27.094Z,516
2017-10-14T13:32:36.124Z,516
2017-10-14T13:33:45.426Z,512
2017-10-14T13:34:54.443Z,508
2017-10-14T13:36:03.755Z,504
2017-10-14T13:37:13.090Z,504
2017-10-14T13:38:22.120Z,504
2017-10-14T13:39:31.437Z,500
2017-10-14T13:40:40.769Z,500
2017-10-14T13:41:50.089Z,504
2017-10-14T13:42:59.071Z,500
2017-10-14T13:44:08.046Z,500
2017-10-14T13:45:17.038Z,500
2017-10-14T13:46:26.034Z,504
2017-10-14T13:47:35.019Z,504
2017-10-14T13:48:44.346Z,504
2017-10-14T13:49:53.033Z,504
2017-10-14T13:51:02.030Z,504
2017-10-14T13:52:11.026Z,500
2017-10-14T13:53:19.693Z,500
2017-10-14T13:54:29.342Z,500
2017-10-14T13:55:38.335Z,500
2017-10-14T13:56:47.019Z,500
2017-10-14T13:57:56.349Z,496
2017-10-14T13:59:05.664Z,500
2017-10-14T14:00:14.717Z,500
2017-10-14T14:01:24.751Z,496
2017-10-14T14:02:33.768Z,496
2017-10-14T14:03:43.071Z,496
2017-10-14T14:04:52.096Z,492
2017-10-14T14:06:01.404Z,492
2017-10-14T14:07:10.725Z,492
2017-10-14T14:08:19.712Z,492
2017-10-14T14:09:28.751Z,488
2017-10-14T14:10:38.077Z,488
2017-10-14T14:11:46.717Z,488
2017-10-14T14:12:56.095Z,484
2017-10-14T14:14:05.421Z,484
2017-10-14T14:15:14.836Z,484
2017-10-14T14:16:24.800Z,480
2017-10-14T14:17:33.804Z,484
2017-10-14T14:18:42.468Z,480
2017-10-14T14:19:51.121Z,476
2017-10-14T14:21:00.420Z,480
2017-10-14T14:22:09.087Z,476
2017-10-14T14:23:18.055Z,476
2017-10-14T14:24:26.717Z,472
2017-10-14T14:25:35.690Z,472
2017-10-14T14:26:45.046Z,468
2017-10-14T14:27:54.034Z,472
2017-10-14T14:29:02.999Z,468
2017-10-14T14:30:11.992Z,464
2017-10-14T14:31:20.657Z,464
2017-10-14T14:32:29.319Z,460
2017-10-14T14:33:38.969Z,460
2017-10-14T14:34:48.602Z,460
2017-10-14T14:35:57.581Z,456
2017-10-14T14:37:06.567Z,456
2017-10-14T14:38:15.241Z,452
2017-10-14T14:39:23.896Z,452
2017-10-14T14:40:32.879Z,452
2017-10-14T14:41:42.198Z,448
2017-10-14T14:42:51.904Z,448
2017-10-14T14:44:00.866Z,448
2017-10-14T14:45:10.522Z,444
2017-10-14T14:46:19.851Z,444
2017-10-14T14:47:28.840Z,440
2017-10-14T14:48:37.826Z,436
2017-10-14T14:49:46.598Z,436
2017-10-14T14:50:55.584Z,432
2017-10-14T14:52:04.574Z,432
2017-10-14T14:53:13.546Z,432
2017-10-14T14:54:22.893Z,432
2017-10-14T14:55:32.270Z,424
2017-10-14T14:56:41.258Z,424
2017-10-14T14:57:50.576Z,424
2017-10-14T14:58:59.243Z,420
2017-10-14T15:00:08.892Z,416
2017-10-14T15:01:18.267Z,416
2017-10-14T15:02:27.262Z,416
2017-10-14T15:03:36.933Z,412
2017-10-14T15:04:46.620Z,412
2017-10-14T15:05:55.634Z,412
2017-10-14T15:07:04.661Z,408
2017-10-14T15:08:14.037Z,404
2017-10-14T15:09:23.622Z,404
2017-10-14T15:10:33.347Z,400
2017-10-14T15:11:42.012Z,396
2017-10-14T15:12:50.679Z,396
2017-10-14T15:13:59.354Z,392
2017-10-14T15:15:08.712Z,388
2017-10-14T15:16:17.676Z,384
2017-10-14T15:17:27.126Z,384
2017-10-14T15:18:36.452Z,380
2017-10-14T15:19:46.768Z,376
2017-10-14T15:20:55.955Z,372
2017-10-14T15:22:06.033Z,368
2017-10-14T15:23:16.494Z,368
2017-10-14T15:24:25.524Z,364
2017-10-14T15:25:35.713Z,360
2017-10-14T15:26:45.372Z,356
2017-10-14T15:27:54.370Z,352
2017-10-14T15:29:03.379Z,352
2017-10-14T15:30:12.390Z,348
2017-10-14T15:31:21.722Z,344
2017-10-14T15:32:30.388Z,344
2017-10-14T15:33:39.696Z,340
2017-10-14T15:34:49.019Z,332
2017-10-14T15:35:58.004Z,332
2017-10-14T15:37:07.365Z,324
2017-10-14T15:38:16.366Z,324
2017-10-14T15:39:25.700Z,320
2017-10-14T15:40:34.686Z,316
2017-10-14T15:41:44.029Z,312
2017-10-14T15:42:53.003Z,308
2017-10-14T15:44:01.684Z,304
2017-10-14T15:45:11.659Z,296
2017-10-14T15:46:20.960Z,292
2017-10-14T15:47:29.638Z,288
2017-10-14T15:48:38.305Z,288
2017-10-14T15:49:47.300Z,284
2017-10-14T15:50:56.624Z,280
2017-10-14T15:52:05.646Z,276
2017-10-14T15:53:15.423Z,272
2017-10-14T15:54:24.111Z,268
2017-10-14T15:55:33.789Z,264
2017-10-14T15:56:42.802Z,260
2017-10-14T15:57:51.821Z,252
2017-10-14T15:59:00.481Z,248
2017-10-14T16:00:10.246Z,244
2017-10-14T16:01:19.266Z,240
2017-10-14T16:02:28.594Z,236
2017-10-14T16:03:37.929Z,228
2017-10-14T16:04:47.014Z,224
2017-10-14T16:05:56.329Z,224
2017-10-14T16:07:05.336Z,216
2017-10-14T16:08:15.015Z,212
2017-10-14T16:09:24.346Z,208
2017-10-14T16:10:33.098Z,204
2017-10-14T16:11:42.066Z,196
2017-10-14T16:12:51.693Z,192
2017-10-14T16:14:01.332Z,184
2017-10-14T16:15:10.983Z,180
2017-10-14T16:16:20.069Z,176